sensor_id;sensor_type;location;lat;lon;timestamp;P1;durP1;ratioP1;P2;durP2;ratioP2
71456;SDS011;59263;48.160;11.752;2023-12-20T00:00:50;6.43;;;1.33;;
71456;SDS011;59263;48.160;11.752;2023-12-20T00:03:16;5.83;;;1.20;;
71456;SDS011;59263;48.160;11.752;2023-12-20T00:05:41;6.78;;;1.33;;
71456;SDS011;59263;48.160;11.752;2023-12-20T00:08:07;6.57;;;1.43;;
71456;SDS011;59263;48.160;11.752;2023-12-20T00:10:32;6.93;;;1.40;;
71456;SDS011;59263;48.160;11.752;2023-12-20T00:12:57;4.40;;;1.27;;
71456;SDS011;59263;48.160;11.752;2023-12-20T00:15:23;5.70;;;1.27;;
71456;SDS011;59263;48.160;11.752;2023-12-20T00:17:48;6.17;;;1.50;;
71456;SDS011;59263;48.160;11.752;2023-12-20T00:20:13;5.33;;;1.23;;
71456;SDS011;59263;48.160;11.752;2023-12-20T00:22:39;6.38;;;1.40;;
71456;SDS011;59263;48.160;11.752;2023-12-20T00:25:04;5.27;;;1.43;;
71456;SDS011;59263;48.160;11.752;2023-12-20T00:27:30;5.07;;;1.37;;
71456;SDS011;59263;48.160;11.752;2023-12-20T00:29:55;4.70;;;1.17;;
71456;SDS011;59263;48.160;11.752;2023-12-20T00:32:20;5.23;;;1.43;;
71456;SDS011;59263;48.160;11.752;2023-12-20T00:34:46;7.27;;;1.40;;
71456;SDS011;59263;48.160;11.752;2023-12-20T00:37:11;4.23;;;1.20;;
71456;SDS011;59263;48.160;11.752;2023-12-20T00:39:36;4.38;;;1.20;;
71456;SDS011;59263;48.160;11.752;2023-12-20T00:42:02;6.77;;;1.50;;
71456;SDS011;59263;48.160;11.752;2023-12-20T00:44:27;5.97;;;1.33;;
71456;SDS011;59263;48.160;11.752;2023-12-20T00:46:52;5.63;;;1.30;;
71456;SDS011;59263;48.160;11.752;2023-12-20T00:49:18;5.97;;;1.40;;
71456;SDS011;59263;48.160;11.752;2023-12-20T00:51:43;5.57;;;1.40;;
71456;SDS011;59263;48.160;11.752;2023-12-20T00:54:08;5.80;;;1.20;;
71456;SDS011;59263;48.160;11.752;2023-12-20T00:56:34;6.40;;;1.42;;
71456;SDS011;59263;48.160;11.752;2023-12-20T00:59:00;4.83;;;1.20;;
71456;SDS011;59263;48.160;11.752;2023-12-20T01:01:25;6.05;;;1.23;;
71456;SDS011;59263;48.160;11.752;2023-12-20T01:03:51;6.63;;;1.50;;
71456;SDS011;59263;48.160;11.752;2023-12-20T01:06:16;4.50;;;1.00;;
71456;SDS011;59263;48.160;11.752;2023-12-20T01:08:42;6.30;;;1.30;;
71456;SDS011;59263;48.160;11.752;2023-12-20T01:11:07;5.28;;;1.23;;
71456;SDS011;59263;48.160;11.752;2023-12-20T01:13:32;4.70;;;1.17;;
71456;SDS011;59263;48.160;11.752;2023-12-20T01:15:58;4.60;;;1.10;;
71456;SDS011;59263;48.160;11.752;2023-12-20T01:18:24;5.57;;;1.30;;
71456;SDS011;59263;48.160;11.752;2023-12-20T01:20:49;5.00;;;1.20;;
71456;SDS011;59263;48.160;11.752;2023-12-20T01:23:14;4.88;;;1.05;;
71456;SDS011;59263;48.160;11.752;2023-12-20T01:25:40;6.03;;;1.38;;
71456;SDS011;59263;48.160;11.752;2023-12-20T01:28:05;4.73;;;1.10;;
71456;SDS011;59263;48.160;11.752;2023-12-20T01:30:30;4.90;;;1.10;;
71456;SDS011;59263;48.160;11.752;2023-12-20T01:32:56;4.40;;;0.90;;
71456;SDS011;59263;48.160;11.752;2023-12-20T01:35:21;6.77;;;1.03;;
71456;SDS011;59263;48.160;11.752;2023-12-20T01:37:46;3.63;;;1.07;;
71456;SDS011;59263;48.160;11.752;2023-12-20T01:40:12;5.20;;;1.10;;
71456;SDS011;59263;48.160;11.752;2023-12-20T01:42:37;4.85;;;1.00;;
71456;SDS011;59263;48.160;11.752;2023-12-20T01:45:02;4.25;;;1.10;;
71456;SDS011;59263;48.160;11.752;2023-12-20T01:47:28;5.07;;;1.00;;
71456;SDS011;59263;48.160;11.752;2023-12-20T01:49:54;5.07;;;1.20;;
71456;SDS011;59263;48.160;11.752;2023-12-20T01:52:21;4.13;;;1.00;;
71456;SDS011;59263;48.160;11.752;2023-12-20T01:54:47;4.70;;;1.00;;
71456;SDS011;59263;48.160;11.752;2023-12-20T01:57:13;4.47;;;1.10;;
71456;SDS011;59263;48.160;11.752;2023-12-20T01:59:39;4.97;;;1.00;;
71456;SDS011;59263;48.160;11.752;2023-12-20T02:02:05;5.78;;;1.30;;
71456;SDS011;59263;48.160;11.752;2023-12-20T02:04:32;6.20;;;1.10;;
71456;SDS011;59263;48.160;11.752;2023-12-20T02:06:58;4.18;;;1.08;;
71456;SDS011;59263;48.160;11.752;2023-12-20T02:09:24;6.00;;;1.00;;
71456;SDS011;59263;48.160;11.752;2023-12-20T02:11:49;3.17;;;0.80;;
71456;SDS011;59263;48.160;11.752;2023-12-20T02:14:15;3.63;;;0.90;;
71456;SDS011;59263;48.160;11.752;2023-12-20T02:16:41;6.83;;;0.93;;
71456;SDS011;59263;48.160;11.752;2023-12-20T02:19:08;3.67;;;0.90;;
71456;SDS011;59263;48.160;11.752;2023-12-20T02:21:38;3.73;;;0.80;;
71456;SDS011;59263;48.160;11.752;2023-12-20T02:24:04;2.65;;;0.70;;
71456;SDS011;59263;48.160;11.752;2023-12-20T02:26:29;5.28;;;1.08;;
71456;SDS011;59263;48.160;11.752;2023-12-20T02:28:56;4.32;;;0.73;;
71456;SDS011;59263;48.160;11.752;2023-12-20T02:31:22;3.90;;;0.80;;
71456;SDS011;59263;48.160;11.752;2023-12-20T02:33:48;1.65;;;0.40;;
71456;SDS011;59263;48.160;11.752;2023-12-20T02:36:13;4.17;;;0.80;;
71456;SDS011;59263;48.160;11.752;2023-12-20T02:38:39;3.10;;;0.73;;
71456;SDS011;59263;48.160;11.752;2023-12-20T02:41:04;3.27;;;0.80;;
71456;SDS011;59263;48.160;11.752;2023-12-20T02:43:29;4.53;;;0.70;;
71456;SDS011;59263;48.160;11.752;2023-12-20T02:45:54;2.47;;;0.50;;
71456;SDS011;59263;48.160;11.752;2023-12-20T02:48:20;3.20;;;0.83;;
71456;SDS011;59263;48.160;11.752;2023-12-20T02:50:46;2.57;;;0.77;;
71456;SDS011;59263;48.160;11.752;2023-12-20T02:53:13;1.90;;;0.50;;
71456;SDS011;59263;48.160;11.752;2023-12-20T02:55:39;1.67;;;0.50;;
71456;SDS011;59263;48.160;11.752;2023-12-20T02:58:04;3.58;;;0.40;;
71456;SDS011;59263;48.160;11.752;2023-12-20T03:00:30;2.80;;;0.63;;
71456;SDS011;59263;48.160;11.752;2023-12-20T03:02:55;2.90;;;0.57;;
71456;SDS011;59263;48.160;11.752;2023-12-20T03:05:20;2.00;;;0.50;;
71456;SDS011;59263;48.160;11.752;2023-12-20T03:07:46;3.60;;;0.60;;
71456;SDS011;59263;48.160;11.752;2023-12-20T03:10:11;1.83;;;0.40;;
71456;SDS011;59263;48.160;11.752;2023-12-20T03:12:37;2.07;;;0.53;;
71456;SDS011;59263;48.160;11.752;2023-12-20T03:15:02;1.88;;;0.50;;
71456;SDS011;59263;48.160;11.752;2023-12-20T03:17:27;1.80;;;0.60;;
71456;SDS011;59263;48.160;11.752;2023-12-20T03:19:53;3.00;;;0.53;;
71456;SDS011;59263;48.160;11.752;2023-12-20T03:22:18;1.93;;;0.40;;
71456;SDS011;59263;48.160;11.752;2023-12-20T03:24:43;3.13;;;0.70;;
71456;SDS011;59263;48.160;11.752;2023-12-20T03:27:09;2.20;;;0.50;;
71456;SDS011;59263;48.160;11.752;2023-12-20T03:29:34;2.03;;;0.47;;
71456;SDS011;59263;48.160;11.752;2023-12-20T03:31:59;3.65;;;0.70;;
71456;SDS011;59263;48.160;11.752;2023-12-20T03:34:25;5.00;;;0.85;;
71456;SDS011;59263;48.160;11.752;2023-12-20T03:36:51;2.37;;;0.50;;
71456;SDS011;59263;48.160;11.752;2023-12-20T03:39:17;2.42;;;0.60;;
71456;SDS011;59263;48.160;11.752;2023-12-20T03:41:42;4.28;;;0.73;;
71456;SDS011;59263;48.160;11.752;2023-12-20T03:44:07;3.27;;;0.63;;
71456;SDS011;59263;48.160;11.752;2023-12-20T03:46:33;2.10;;;0.50;;
71456;SDS011;59263;48.160;11.752;2023-12-20T03:48:58;2.10;;;0.53;;
71456;SDS011;59263;48.160;11.752;2023-12-20T03:51:23;1.83;;;0.40;;
71456;SDS011;59263;48.160;11.752;2023-12-20T03:53:49;1.07;;;0.40;;
71456;SDS011;59263;48.160;11.752;2023-12-20T03:56:14;2.13;;;0.40;;
71456;SDS011;59263;48.160;11.752;2023-12-20T03:58:39;2.87;;;0.57;;
71456;SDS011;59263;48.160;11.752;2023-12-20T04:01:09;2.45;;;0.50;;
71456;SDS011;59263;48.160;11.752;2023-12-20T04:03:35;1.83;;;0.47;;
71456;SDS011;59263;48.160;11.752;2023-12-20T04:06:01;2.17;;;0.57;;
71456;SDS011;59263;48.160;11.752;2023-12-20T04:08:26;3.47;;;0.68;;
71456;SDS011;59263;48.160;11.752;2023-12-20T04:10:51;2.03;;;0.40;;
71456;SDS011;59263;48.160;11.752;2023-12-20T04:13:17;1.73;;;0.40;;
71456;SDS011;59263;48.160;11.752;2023-12-20T04:15:42;1.53;;;0.30;;
71456;SDS011;59263;48.160;11.752;2023-12-20T04:18:07;1.77;;;0.47;;
71456;SDS011;59263;48.160;11.752;2023-12-20T04:20:33;1.00;;;0.30;;
71456;SDS011;59263;48.160;11.752;2023-12-20T04:22:58;1.67;;;0.43;;
71456;SDS011;59263;48.160;11.752;2023-12-20T04:25:23;1.53;;;0.40;;
71456;SDS011;59263;48.160;11.752;2023-12-20T04:27:50;2.42;;;0.50;;
71456;SDS011;59263;48.160;11.752;2023-12-20T04:30:15;2.20;;;0.53;;
71456;SDS011;59263;48.160;11.752;2023-12-20T04:32:40;1.57;;;0.40;;
71456;SDS011;59263;48.160;11.752;2023-12-20T04:35:06;0.90;;;0.30;;
71456;SDS011;59263;48.160;11.752;2023-12-20T04:37:33;2.25;;;0.43;;
71456;SDS011;59263;48.160;11.752;2023-12-20T04:39:58;1.98;;;0.70;;
71456;SDS011;59263;48.160;11.752;2023-12-20T04:42:24;1.55;;;0.50;;
71456;SDS011;59263;48.160;11.752;2023-12-20T04:44:49;1.33;;;0.33;;
71456;SDS011;59263;48.160;11.752;2023-12-20T04:47:15;2.57;;;0.60;;
71456;SDS011;59263;48.160;11.752;2023-12-20T04:49:40;1.40;;;0.40;;
71456;SDS011;59263;48.160;11.752;2023-12-20T04:52:05;2.33;;;0.60;;
71456;SDS011;59263;48.160;11.752;2023-12-20T04:54:31;1.87;;;0.40;;
71456;SDS011;59263;48.160;11.752;2023-12-20T04:56:56;3.80;;;0.73;;
71456;SDS011;59263;48.160;11.752;2023-12-20T04:59:21;2.17;;;0.55;;
71456;SDS011;59263;48.160;11.752;2023-12-20T05:01:47;4.28;;;0.80;;
71456;SDS011;59263;48.160;11.752;2023-12-20T05:04:12;2.87;;;0.70;;
71456;SDS011;59263;48.160;11.752;2023-12-20T05:06:38;2.53;;;0.60;;
71456;SDS011;59263;48.160;11.752;2023-12-20T05:09:03;2.95;;;0.60;;
71456;SDS011;59263;48.160;11.752;2023-12-20T05:11:29;4.95;;;1.05;;
71456;SDS011;59263;48.160;11.752;2023-12-20T05:13:54;5.03;;;1.30;;
71456;SDS011;59263;48.160;11.752;2023-12-20T05:16:19;1.77;;;0.40;;
71456;SDS011;59263;48.160;11.752;2023-12-20T05:18:46;6.25;;;0.70;;
71456;SDS011;59263;48.160;11.752;2023-12-20T05:21:13;3.00;;;0.80;;
71456;SDS011;59263;48.160;11.752;2023-12-20T05:23:38;3.75;;;0.90;;
71456;SDS011;59263;48.160;11.752;2023-12-20T05:26:04;2.80;;;0.70;;
71456;SDS011;59263;48.160;11.752;2023-12-20T05:28:29;4.67;;;0.83;;
71456;SDS011;59263;48.160;11.752;2023-12-20T05:30:54;4.13;;;0.90;;
71456;SDS011;59263;48.160;11.752;2023-12-20T05:33:20;4.17;;;1.00;;
71456;SDS011;59263;48.160;11.752;2023-12-20T05:35:45;3.40;;;0.83;;
71456;SDS011;59263;48.160;11.752;2023-12-20T05:38:10;4.73;;;1.00;;
71456;SDS011;59263;48.160;11.752;2023-12-20T05:40:36;6.40;;;1.20;;
71456;SDS011;59263;48.160;11.752;2023-12-20T05:43:02;5.20;;;1.30;;
71456;SDS011;59263;48.160;11.752;2023-12-20T05:45:27;7.27;;;2.10;;
71456;SDS011;59263;48.160;11.752;2023-12-20T05:47:52;9.03;;;2.23;;
71456;SDS011;59263;48.160;11.752;2023-12-20T05:50:18;6.45;;;1.20;;
71456;SDS011;59263;48.160;11.752;2023-12-20T05:52:44;13.60;;;3.33;;
71456;SDS011;59263;48.160;11.752;2023-12-20T05:55:09;3.80;;;0.83;;
71456;SDS011;59263;48.160;11.752;2023-12-20T05:57:34;6.00;;;0.80;;
71456;SDS011;59263;48.160;11.752;2023-12-20T06:00:00;12.55;;;2.25;;
71456;SDS011;59263;48.160;11.752;2023-12-20T06:02:25;9.38;;;2.42;;
71456;SDS011;59263;48.160;11.752;2023-12-20T06:04:50;12.50;;;2.73;;
71456;SDS011;59263;48.160;11.752;2023-12-20T06:07:16;10.40;;;2.77;;
71456;SDS011;59263;48.160;11.752;2023-12-20T06:09:42;8.43;;;1.85;;
71456;SDS011;59263;48.160;11.752;2023-12-20T06:12:07;8.25;;;1.85;;
71456;SDS011;59263;48.160;11.752;2023-12-20T06:14:33;6.07;;;1.08;;
71456;SDS011;59263;48.160;11.752;2023-12-20T06:16:59;6.75;;;1.70;;
71456;SDS011;59263;48.160;11.752;2023-12-20T06:19:26;5.05;;;1.40;;
71456;SDS011;59263;48.160;11.752;2023-12-20T06:21:51;5.53;;;1.13;;
71456;SDS011;59263;48.160;11.752;2023-12-20T06:24:17;3.25;;;0.93;;
71456;SDS011;59263;48.160;11.752;2023-12-20T06:26:42;4.25;;;1.10;;
71456;SDS011;59263;48.160;11.752;2023-12-20T06:29:07;4.07;;;1.13;;
71456;SDS011;59263;48.160;11.752;2023-12-20T06:31:33;3.50;;;0.80;;
71456;SDS011;59263;48.160;11.752;2023-12-20T06:33:58;5.13;;;1.10;;
71456;SDS011;59263;48.160;11.752;2023-12-20T06:36:25;3.80;;;0.88;;
71456;SDS011;59263;48.160;11.752;2023-12-20T06:38:53;4.53;;;1.10;;
71456;SDS011;59263;48.160;11.752;2023-12-20T06:41:19;3.90;;;1.10;;
71456;SDS011;59263;48.160;11.752;2023-12-20T06:43:44;5.77;;;1.00;;
71456;SDS011;59263;48.160;11.752;2023-12-20T06:46:09;4.05;;;0.98;;
71456;SDS011;59263;48.160;11.752;2023-12-20T06:48:35;2.15;;;0.65;;
71456;SDS011;59263;48.160;11.752;2023-12-20T06:51:00;3.77;;;0.93;;
71456;SDS011;59263;48.160;11.752;2023-12-20T06:53:27;5.07;;;0.98;;
71456;SDS011;59263;48.160;11.752;2023-12-20T06:55:53;5.20;;;1.30;;
71456;SDS011;59263;48.160;11.752;2023-12-20T06:58:18;2.83;;;0.88;;
71456;SDS011;59263;48.160;11.752;2023-12-20T07:00:43;3.93;;;0.80;;
71456;SDS011;59263;48.160;11.752;2023-12-20T07:03:09;6.33;;;1.30;;
71456;SDS011;59263;48.160;11.752;2023-12-20T07:05:34;3.83;;;1.10;;
71456;SDS011;59263;48.160;11.752;2023-12-20T07:08:00;4.47;;;1.13;;
71456;SDS011;59263;48.160;11.752;2023-12-20T07:10:25;3.97;;;0.90;;
71456;SDS011;59263;48.160;11.752;2023-12-20T07:12:50;4.90;;;0.93;;
71456;SDS011;59263;48.160;11.752;2023-12-20T07:15:17;8.00;;;1.20;;
71456;SDS011;59263;48.160;11.752;2023-12-20T07:17:43;4.80;;;0.80;;
71456;SDS011;59263;48.160;11.752;2023-12-20T07:20:08;4.85;;;0.98;;
71456;SDS011;59263;48.160;11.752;2023-12-20T07:22:36;4.95;;;1.05;;
71456;SDS011;59263;48.160;11.752;2023-12-20T07:25:01;3.78;;;0.73;;
71456;SDS011;59263;48.160;11.752;2023-12-20T07:27:27;3.50;;;0.77;;
71456;SDS011;59263;48.160;11.752;2023-12-20T07:29:52;1.93;;;0.57;;
71456;SDS011;59263;48.160;11.752;2023-12-20T07:32:18;7.60;;;0.90;;
71456;SDS011;59263;48.160;11.752;2023-12-20T07:34:43;3.10;;;0.82;;
71456;SDS011;59263;48.160;11.752;2023-12-20T07:37:09;4.80;;;0.90;;
71456;SDS011;59263;48.160;11.752;2023-12-20T07:39:36;2.67;;;0.52;;
71456;SDS011;59263;48.160;11.752;2023-12-20T07:42:05;2.17;;;0.50;;
71456;SDS011;59263;48.160;11.752;2023-12-20T07:44:30;2.00;;;0.60;;
71456;SDS011;59263;48.160;11.752;2023-12-20T07:46:56;3.13;;;0.70;;
71456;SDS011;59263;48.160;11.752;2023-12-20T07:49:22;2.30;;;0.43;;
71456;SDS011;59263;48.160;11.752;2023-12-20T07:51:48;3.40;;;0.70;;
71456;SDS011;59263;48.160;11.752;2023-12-20T07:54:13;4.83;;;0.70;;
71456;SDS011;59263;48.160;11.752;2023-12-20T07:56:38;2.72;;;0.52;;
71456;SDS011;59263;48.160;11.752;2023-12-20T07:59:05;2.35;;;0.57;;
71456;SDS011;59263;48.160;11.752;2023-12-20T08:01:30;4.22;;;0.50;;
71456;SDS011;59263;48.160;11.752;2023-12-20T08:03:56;2.67;;;0.60;;
71456;SDS011;59263;48.160;11.752;2023-12-20T08:06:22;1.90;;;0.60;;
71456;SDS011;59263;48.160;11.752;2023-12-20T08:08:47;2.43;;;0.50;;
71456;SDS011;59263;48.160;11.752;2023-12-20T08:11:13;2.07;;;0.57;;
71456;SDS011;59263;48.160;11.752;2023-12-20T08:13:38;2.77;;;0.70;;
71456;SDS011;59263;48.160;11.752;2023-12-20T08:16:03;2.47;;;0.50;;
71456;SDS011;59263;48.160;11.752;2023-12-20T08:18:29;2.22;;;0.60;;
71456;SDS011;59263;48.160;11.752;2023-12-20T08:20:54;3.43;;;0.77;;
71456;SDS011;59263;48.160;11.752;2023-12-20T08:23:20;3.20;;;0.60;;
71456;SDS011;59263;48.160;11.752;2023-12-20T08:25:46;1.15;;;0.40;;
71456;SDS011;59263;48.160;11.752;2023-12-20T08:28:11;2.93;;;0.57;;
71456;SDS011;59263;48.160;11.752;2023-12-20T08:30:37;1.17;;;0.32;;
71456;SDS011;59263;48.160;11.752;2023-12-20T08:33:02;1.27;;;0.40;;
71456;SDS011;59263;48.160;11.752;2023-12-20T08:35:28;1.03;;;0.33;;
71456;SDS011;59263;48.160;11.752;2023-12-20T08:37:53;1.23;;;0.40;;
71456;SDS011;59263;48.160;11.752;2023-12-20T08:40:18;2.85;;;0.50;;
71456;SDS011;59263;48.160;11.752;2023-12-20T08:42:45;3.73;;;0.73;;
71456;SDS011;59263;48.160;11.752;2023-12-20T08:45:10;2.38;;;0.43;;
71456;SDS011;59263;48.160;11.752;2023-12-20T08:47:36;0.87;;;0.23;;
71456;SDS011;59263;48.160;11.752;2023-12-20T08:50:02;2.30;;;0.50;;
71456;SDS011;59263;48.160;11.752;2023-12-20T08:52:28;4.88;;;0.60;;
71456;SDS011;59263;48.160;11.752;2023-12-20T08:54:54;2.17;;;0.53;;
71456;SDS011;59263;48.160;11.752;2023-12-20T08:57:20;2.55;;;0.60;;
71456;SDS011;59263;48.160;11.752;2023-12-20T08:59:46;1.67;;;0.40;;
71456;SDS011;59263;48.160;11.752;2023-12-20T09:02:12;2.70;;;0.50;;
71456;SDS011;59263;48.160;11.752;2023-12-20T09:04:38;1.20;;;0.30;;
71456;SDS011;59263;48.160;11.752;2023-12-20T09:07:04;2.33;;;0.60;;
71456;SDS011;59263;48.160;11.752;2023-12-20T09:09:29;1.37;;;0.37;;
71456;SDS011;59263;48.160;11.752;2023-12-20T09:11:57;1.70;;;0.60;;
71456;SDS011;59263;48.160;11.752;2023-12-20T09:14:22;1.70;;;0.63;;
71456;SDS011;59263;48.160;11.752;2023-12-20T09:16:48;2.73;;;0.63;;
71456;SDS011;59263;48.160;11.752;2023-12-20T09:19:16;2.28;;;0.50;;
71456;SDS011;59263;48.160;11.752;2023-12-20T09:21:41;2.10;;;0.40;;
71456;SDS011;59263;48.160;11.752;2023-12-20T09:24:07;1.38;;;0.30;;
71456;SDS011;59263;48.160;11.752;2023-12-20T09:26:33;2.85;;;0.70;;
71456;SDS011;59263;48.160;11.752;2023-12-20T09:28:59;1.37;;;0.37;;
71456;SDS011;59263;48.160;11.752;2023-12-20T09:31:24;3.57;;;0.87;;
71456;SDS011;59263;48.160;11.752;2023-12-20T09:33:49;3.03;;;0.80;;
71456;SDS011;59263;48.160;11.752;2023-12-20T09:36:15;3.77;;;0.73;;
71456;SDS011;59263;48.160;11.752;2023-12-20T09:38:40;3.17;;;0.40;;
71456;SDS011;59263;48.160;11.752;2023-12-20T09:41:05;3.58;;;0.50;;
71456;SDS011;59263;48.160;11.752;2023-12-20T09:43:31;2.03;;;0.50;;
71456;SDS011;59263;48.160;11.752;2023-12-20T09:46:00;3.25;;;0.40;;
71456;SDS011;59263;48.160;11.752;2023-12-20T09:48:28;2.70;;;0.53;;
71456;SDS011;59263;48.160;11.752;2023-12-20T09:50:55;3.15;;;0.45;;
71456;SDS011;59263;48.160;11.752;2023-12-20T09:53:20;8.88;;;0.70;;
71456;SDS011;59263;48.160;11.752;2023-12-20T09:55:48;1.27;;;0.40;;
71456;SDS011;59263;48.160;11.752;2023-12-20T09:58:14;3.25;;;0.70;;
71456;SDS011;59263;48.160;11.752;2023-12-20T10:00:39;1.43;;;0.50;;
71456;SDS011;59263;48.160;11.752;2023-12-20T10:03:05;3.10;;;0.60;;
71456;SDS011;59263;48.160;11.752;2023-12-20T10:05:32;4.82;;;0.80;;
71456;SDS011;59263;48.160;11.752;2023-12-20T10:07:59;3.28;;;0.52;;
71456;SDS011;59263;48.160;11.752;2023-12-20T10:10:25;2.60;;;0.50;;
71456;SDS011;59263;48.160;11.752;2023-12-20T10:13:01;1.15;;;0.30;;
71456;SDS011;59263;48.160;11.752;2023-12-20T10:15:27;2.87;;;0.70;;
71456;SDS011;59263;48.160;11.752;2023-12-20T10:17:52;2.00;;;0.55;;
71456;SDS011;59263;48.160;11.752;2023-12-20T10:20:17;3.77;;;0.83;;
71456;SDS011;59263;48.160;11.752;2023-12-20T10:22:43;3.13;;;0.97;;
71456;SDS011;59263;48.160;11.752;2023-12-20T10:25:08;2.33;;;0.60;;
71456;SDS011;59263;48.160;11.752;2023-12-20T10:27:33;2.93;;;0.70;;
71456;SDS011;59263;48.160;11.752;2023-12-20T10:29:59;2.53;;;0.70;;
71456;SDS011;59263;48.160;11.752;2023-12-20T10:32:25;6.80;;;0.80;;
71456;SDS011;59263;48.160;11.752;2023-12-20T10:34:52;2.80;;;0.80;;
71456;SDS011;59263;48.160;11.752;2023-12-20T10:37:18;4.95;;;1.08;;
71456;SDS011;59263;48.160;11.752;2023-12-20T10:39:44;3.15;;;0.80;;
71456;SDS011;59263;48.160;11.752;2023-12-20T10:42:15;4.05;;;0.75;;
71456;SDS011;59263;48.160;11.752;2023-12-20T10:44:42;2.83;;;0.60;;
71456;SDS011;59263;48.160;11.752;2023-12-20T10:47:08;2.80;;;0.55;;
71456;SDS011;59263;48.160;11.752;2023-12-20T10:49:36;2.38;;;0.68;;
71456;SDS011;59263;48.160;11.752;2023-12-20T10:52:03;2.43;;;0.63;;
71456;SDS011;59263;48.160;11.752;2023-12-20T10:54:30;2.55;;;0.60;;
71456;SDS011;59263;48.160;11.752;2023-12-20T10:56:56;2.47;;;0.70;;
71456;SDS011;59263;48.160;11.752;2023-12-20T10:59:23;2.10;;;0.60;;
71456;SDS011;59263;48.160;11.752;2023-12-20T11:01:49;2.60;;;0.60;;
71456;SDS011;59263;48.160;11.752;2023-12-20T11:04:17;3.35;;;0.57;;
71456;SDS011;59263;48.160;11.752;2023-12-20T11:09:24;3.58;;;0.70;;
71456;SDS011;59263;48.160;11.752;2023-12-20T11:14:54;2.38;;;0.50;;
71456;SDS011;59263;48.160;11.752;2023-12-20T11:17:27;1.80;;;0.55;;
71456;SDS011;59263;48.160;11.752;2023-12-20T11:22:21;2.00;;;0.50;;
71456;SDS011;59263;48.160;11.752;2023-12-20T11:24:48;2.17;;;0.88;;
71456;SDS011;59263;48.160;11.752;2023-12-20T11:27:13;4.10;;;0.77;;
71456;SDS011;59263;48.160;11.752;2023-12-20T11:29:39;5.88;;;1.10;;
71456;SDS011;59263;48.160;11.752;2023-12-20T11:32:48;3.43;;;0.70;;
71456;SDS011;59263;48.160;11.752;2023-12-20T11:34:57;2.00;;;0.63;;
71456;SDS011;59263;48.160;11.752;2023-12-20T11:37:31;3.45;;;0.90;;
71456;SDS011;59263;48.160;11.752;2023-12-20T11:40:21;3.33;;;0.75;;
71456;SDS011;59263;48.160;11.752;2023-12-20T11:42:48;8.32;;;0.98;;
71456;SDS011;59263;48.160;11.752;2023-12-20T11:45:15;2.80;;;0.80;;
71456;SDS011;59263;48.160;11.752;2023-12-20T11:47:46;1.95;;;0.60;;
71456;SDS011;59263;48.160;11.752;2023-12-20T11:50:14;5.82;;;0.73;;
71456;SDS011;59263;48.160;11.752;2023-12-20T11:52:40;3.90;;;0.90;;
71456;SDS011;59263;48.160;11.752;2023-12-20T11:55:06;3.10;;;0.90;;
71456;SDS011;59263;48.160;11.752;2023-12-20T11:57:32;3.47;;;0.80;;
71456;SDS011;59263;48.160;11.752;2023-12-20T11:59:58;3.30;;;0.77;;
71456;SDS011;59263;48.160;11.752;2023-12-20T12:02:24;3.15;;;0.75;;
71456;SDS011;59263;48.160;11.752;2023-12-20T12:04:50;4.37;;;0.90;;
71456;SDS011;59263;48.160;11.752;2023-12-20T12:07:18;4.97;;;0.88;;
71456;SDS011;59263;48.160;11.752;2023-12-20T12:09:44;2.70;;;0.70;;
71456;SDS011;59263;48.160;11.752;2023-12-20T12:12:10;4.13;;;1.15;;
71456;SDS011;59263;48.160;11.752;2023-12-20T12:14:37;3.95;;;0.90;;
71456;SDS011;59263;48.160;11.752;2023-12-20T12:17:03;4.25;;;0.95;;
71456;SDS011;59263;48.160;11.752;2023-12-20T12:19:29;4.40;;;1.10;;
71456;SDS011;59263;48.160;11.752;2023-12-20T12:22:13;4.57;;;0.80;;
71456;SDS011;59263;48.160;11.752;2023-12-20T12:24:40;3.80;;;0.90;;
71456;SDS011;59263;48.160;11.752;2023-12-20T12:27:07;3.65;;;0.82;;
71456;SDS011;59263;48.160;11.752;2023-12-20T12:29:33;1.90;;;0.50;;
71456;SDS011;59263;48.160;11.752;2023-12-20T12:31:59;2.90;;;0.70;;
71456;SDS011;59263;48.160;11.752;2023-12-20T12:34:26;3.08;;;0.70;;
71456;SDS011;59263;48.160;11.752;2023-12-20T12:36:52;4.45;;;0.90;;
71456;SDS011;59263;48.160;11.752;2023-12-20T12:39:18;4.27;;;0.80;;
71456;SDS011;59263;48.160;11.752;2023-12-20T12:41:43;2.60;;;0.80;;
71456;SDS011;59263;48.160;11.752;2023-12-20T12:44:09;4.53;;;0.90;;
71456;SDS011;59263;48.160;11.752;2023-12-20T12:46:34;4.80;;;0.87;;
71456;SDS011;59263;48.160;11.752;2023-12-20T12:49:00;4.37;;;0.80;;
71456;SDS011;59263;48.160;11.752;2023-12-20T12:51:25;3.90;;;0.80;;
71456;SDS011;59263;48.160;11.752;2023-12-20T12:53:51;3.70;;;0.90;;
71456;SDS011;59263;48.160;11.752;2023-12-20T12:56:16;4.33;;;0.90;;
71456;SDS011;59263;48.160;11.752;2023-12-20T12:58:42;3.45;;;0.77;;
71456;SDS011;59263;48.160;11.752;2023-12-20T13:01:07;2.92;;;0.77;;
71456;SDS011;59263;48.160;11.752;2023-12-20T13:03:33;3.53;;;0.90;;
71456;SDS011;59263;48.160;11.752;2023-12-20T13:05:59;1.23;;;0.40;;
71456;SDS011;59263;48.160;11.752;2023-12-20T13:08:25;3.78;;;0.90;;
71456;SDS011;59263;48.160;11.752;2023-12-20T13:10:50;4.13;;;1.10;;
71456;SDS011;59263;48.160;11.752;2023-12-20T13:13:16;5.00;;;1.23;;
71456;SDS011;59263;48.160;11.752;2023-12-20T13:15:41;4.18;;;1.15;;
71456;SDS011;59263;48.160;11.752;2023-12-20T13:18:07;5.10;;;1.35;;
71456;SDS011;59263;48.160;11.752;2023-12-20T13:20:32;4.07;;;0.90;;
71456;SDS011;59263;48.160;11.752;2023-12-20T13:22:58;5.32;;;1.05;;
71456;SDS011;59263;48.160;11.752;2023-12-20T13:25:24;5.82;;;1.20;;
71456;SDS011;59263;48.160;11.752;2023-12-20T13:27:49;4.50;;;1.00;;
71456;SDS011;59263;48.160;11.752;2023-12-20T13:30:16;6.40;;;1.20;;
71456;SDS011;59263;48.160;11.752;2023-12-20T13:32:42;5.03;;;1.20;;
71456;SDS011;59263;48.160;11.752;2023-12-20T13:35:07;5.60;;;1.10;;
71456;SDS011;59263;48.160;11.752;2023-12-20T13:37:33;3.42;;;0.90;;
71456;SDS011;59263;48.160;11.752;2023-12-20T13:39:59;4.40;;;1.00;;
71456;SDS011;59263;48.160;11.752;2023-12-20T13:42:25;4.00;;;1.17;;
71456;SDS011;59263;48.160;11.752;2023-12-20T13:44:52;7.80;;;1.42;;
71456;SDS011;59263;48.160;11.752;2023-12-20T13:47:18;4.17;;;1.00;;
71456;SDS011;59263;48.160;11.752;2023-12-20T13:49:44;4.75;;;1.00;;
71456;SDS011;59263;48.160;11.752;2023-12-20T13:52:10;3.83;;;0.85;;
71456;SDS011;59263;48.160;11.752;2023-12-20T13:54:36;4.97;;;1.03;;
71456;SDS011;59263;48.160;11.752;2023-12-20T13:57:01;5.83;;;1.40;;
71456;SDS011;59263;48.160;11.752;2023-12-20T13:59:28;6.47;;;1.33;;
71456;SDS011;59263;48.160;11.752;2023-12-20T14:01:53;4.93;;;1.30;;
71456;SDS011;59263;48.160;11.752;2023-12-20T14:04:19;6.93;;;1.30;;
71456;SDS011;59263;48.160;11.752;2023-12-20T14:06:45;5.13;;;1.25;;
71456;SDS011;59263;48.160;11.752;2023-12-20T14:09:10;5.87;;;1.40;;
71456;SDS011;59263;48.160;11.752;2023-12-20T14:11:37;5.82;;;1.40;;
71456;SDS011;59263;48.160;11.752;2023-12-20T14:14:06;6.60;;;1.27;;
71456;SDS011;59263;48.160;11.752;2023-12-20T14:16:34;6.22;;;1.30;;
71456;SDS011;59263;48.160;11.752;2023-12-20T14:19:00;5.50;;;1.40;;
71456;SDS011;59263;48.160;11.752;2023-12-20T14:21:25;6.63;;;1.50;;
71456;SDS011;59263;48.160;11.752;2023-12-20T14:23:50;7.77;;;1.73;;
71456;SDS011;59263;48.160;11.752;2023-12-20T14:26:17;5.60;;;1.42;;
71456;SDS011;59263;48.160;11.752;2023-12-20T14:28:42;3.67;;;0.73;;
71456;SDS011;59263;48.160;11.752;2023-12-20T14:31:08;6.07;;;1.30;;
71456;SDS011;59263;48.160;11.752;2023-12-20T14:33:35;5.00;;;1.20;;